KBTV/BTV METAR and TAF weather

Enter ICAO airport designator
Station Type Date Time Source
KBTV METAR 2022/08/13 12:54 UTC NOAA

KBTV 131254Z 00000KT 10SM FEW045 BKN070 17/13 A3016 RMK AO2 SLP212 MTNS E-SE OBSCD T01670133


Station Type Date Time Source
KBTV Decoded METAR 2022/08/13 12:54 UTC NOAA

BURLINGTON INTERNATIONAL, VT, United States (KBTV) 44-28N 73-09W 105M
Aug 13, 2022 - 08:54 AM EDT / 2022.08.13 1254 UTC
Wind: Calm:0
Visibility: 10 mile(s):0
Sky conditions: mostly cloudy
Temperature: 62.1 F (16.7 C)
Dew Point: 55.9 F (13.3 C)
Relative Humidity: 80%
Pressure (altimeter): 30.16 in. Hg (1021 hPa)
ob: KBTV 131254Z 00000KT 10SM FEW045 BKN070 17/13 A3016 RMK AO2 SLP212 MTNS E-SE OBSCD T01670133
cycle: 13

Station Type Date Time Source
KBTV TAF 2022/08/13 12:36 UTC NOAA

TAF KBTV 131135Z 1312/1412 VRB03KT P6SM BKN070
FM131600 34006KT P6SM FEW050
FM140100 VRB03KT P6SM SKC

Example: see airport list